createdAt,value
2022-10-23T00:00:19.101Z,98422.59
2022-10-23T00:03:21.045Z,98427.03
2022-10-23T00:06:22.963Z,98431.97
2022-10-23T00:09:25.477Z,98443.00
2022-10-23T00:12:28.316Z,98441.03
2022-10-23T00:15:30.948Z,98447.50
2022-10-23T00:18:32.961Z,98438.44
2022-10-23T00:21:35.106Z,98428.59
2022-10-23T00:24:37.371Z,98445.03
2022-10-23T00:27:39.475Z,98440.78
2022-10-23T00:30:41.770Z,98436.50
2022-10-23T00:33:43.813Z,98445.44
2022-10-23T00:36:45.633Z,98448.22
2022-10-23T00:39:48.105Z,98448.59
2022-10-23T00:42:50.578Z,98455.19
2022-10-23T00:45:52.977Z,98450.25
2022-10-23T00:48:55.317Z,98451.63
2022-10-23T00:51:59.658Z,98450.41
2022-10-23T00:55:02.565Z,98454.81
2022-10-23T00:58:04.991Z,98463.16
2022-10-23T01:01:18.476Z,98462.34
2022-10-23T01:04:22.865Z,98461.50
2022-10-23T01:07:49.591Z,98468.28
2022-10-23T01:11:02.104Z,98459.75
2022-10-23T01:14:46.924Z,98470.06
2022-10-23T01:17:53.602Z,98464.81
2022-10-23T01:20:56.657Z,98475.47
2022-10-23T01:24:19.999Z,98475.28
2022-10-23T01:27:29.421Z,98479.41
2022-10-23T01:30:33.865Z,98473.06
2022-10-23T01:33:46.736Z,98477.03
2022-10-23T01:36:53.566Z,98476.47
2022-10-23T01:39:58.719Z,98473.84
2022-10-23T01:43:13.594Z,98472.72
2022-10-23T01:46:17.480Z,98479.63
2022-10-23T01:49:21.299Z,98480.84
2022-10-23T01:52:28.068Z,98465.50
2022-10-23T01:55:32.241Z,98471.59
2022-10-23T01:58:36.919Z,98480.56
2022-10-23T02:01:42.418Z,98484.81
2022-10-23T02:05:13.053Z,98477.97
2022-10-23T02:08:15.078Z,98475.19
2022-10-23T02:11:20.959Z,98466.09
2022-10-23T02:14:22.851Z,98472.34
2022-10-23T02:17:58.921Z,98471.38
2022-10-23T02:21:12.495Z,98472.53
2022-10-23T02:24:17.027Z,98469.94
2022-10-23T02:27:26.242Z,98465.66
2022-10-23T02:30:32.238Z,98464.84
2022-10-23T02:33:44.976Z,98466.94
2022-10-23T02:36:46.945Z,98472.03
2022-10-23T02:39:49.804Z,98471.75
2022-10-23T02:42:59.323Z,98474.66
2022-10-23T02:46:14.625Z,98475.41
2022-10-23T02:49:31.543Z,98472.94
2022-10-23T02:52:42.527Z,98471.25
2022-10-23T02:55:48.857Z,98470.00
2022-10-23T02:59:06.846Z,98476.50
2022-10-23T03:02:10.617Z,98483.41
2022-10-23T03:05:21.710Z,98484.53
2022-10-23T03:08:25.216Z,98486.72
2022-10-23T03:11:27.023Z,98481.47
2022-10-23T03:14:30.464Z,98477.22
2022-10-23T03:17:32.746Z,98479.41
2022-10-23T03:20:36.131Z,98487.56
2022-10-23T03:23:37.996Z,98482.03
2022-10-23T03:26:40.074Z,98478.72
2022-10-23T03:29:42.648Z,98477.88
2022-10-23T03:32:44.675Z,98476.38
2022-10-23T03:35:49.039Z,98470.69
2022-10-23T03:38:51.820Z,98474.84
2022-10-23T03:41:54.080Z,98478.72
2022-10-23T03:44:56.214Z,98478.44
2022-10-23T03:47:58.317Z,98482.19
2022-10-23T03:51:00.533Z,98473.75
2022-10-23T03:54:02.191Z,98470.84
2022-10-23T03:57:04.086Z,98471.75
2022-10-23T04:00:08.096Z,98483.34
2022-10-23T04:03:18.110Z,98486.25
2022-10-23T04:06:19.971Z,98488.41
2022-10-23T04:09:23.192Z,98488.88
2022-10-23T04:12:25.081Z,98482.00
2022-10-23T04:15:28.933Z,98494.25
2022-10-23T04:18:32.855Z,98497.56
2022-10-23T04:21:35.292Z,98496.69
2022-10-23T04:24:37.455Z,98505.56
2022-10-23T04:27:39.346Z,98508.22
2022-10-23T04:30:41.790Z,98513.63
2022-10-23T04:33:45.923Z,98513.66
2022-10-23T04:37:01.639Z,98517.13
2022-10-23T04:40:04.043Z,98512.69
2022-10-23T04:43:09.867Z,98514.75
2022-10-23T04:46:14.367Z,98517.78
2022-10-23T04:49:16.404Z,98519.72
2022-10-23T04:52:21.158Z,98512.81
2022-10-23T04:55:49.310Z,98524.16
2022-10-23T04:58:58.413Z,98525.81
2022-10-23T05:02:00.819Z,98524.81
2022-10-23T05:05:04.652Z,98524.44
2022-10-23T05:08:25.284Z,98540.19
2022-10-23T05:12:03.220Z,98541.25
2022-10-23T05:15:05.859Z,98539.59
2022-10-23T05:18:16.016Z,98539.03
2022-10-23T05:21:26.465Z,98539.03
2022-10-23T05:24:28.812Z,98537.94
2022-10-23T05:27:34.859Z,98550.94
2022-10-23T05:30:41.030Z,98553.41
2022-10-23T05:33:44.139Z,98554.69
2022-10-23T05:36:47.003Z,98549.84
2022-10-23T05:39:50.379Z,98547.66
2022-10-23T05:42:52.903Z,98552.09
2022-10-23T05:46:07.093Z,98558.41
2022-10-23T05:49:09.340Z,98561.50
2022-10-23T05:52:34.952Z,98573.09
2022-10-23T05:55:55.401Z,98565.91
2022-10-23T05:59:22.841Z,98565.13
2022-10-23T06:02:54.401Z,98568.34
2022-10-23T06:06:09.938Z,98566.44
2022-10-23T06:09:21.593Z,98571.28
2022-10-23T06:12:25.129Z,98578.78
2022-10-23T06:15:28.330Z,98576.81
2022-10-23T06:18:39.158Z,98578.03
2022-10-23T06:21:46.629Z,98586.66
2022-10-23T06:24:50.616Z,98580.53
2022-10-23T06:28:00.616Z,98580.41
2022-10-23T06:31:07.190Z,98580.16
2022-10-23T06:34:11.069Z,98595.09
2022-10-23T06:37:13.234Z,98600.91
2022-10-23T06:40:26.579Z,98592.59
2022-10-23T06:43:41.502Z,98589.56
2022-10-23T06:46:47.371Z,98587.91
2022-10-23T06:50:15.400Z,98588.19
2022-10-23T06:53:20.087Z,98591.63
2022-10-23T06:56:30.958Z,98601.75
2022-10-23T06:59:35.396Z,98603.66
2022-10-23T07:02:39.230Z,98601.47
2022-10-23T07:05:41.735Z,98600.63
2022-10-23T07:08:44.661Z,98611.16
2022-10-23T07:12:10.033Z,98607.53
2022-10-23T07:15:21.213Z,98606.44
2022-10-23T07:18:24.392Z,98611.41
2022-10-23T07:21:45.033Z,98605.31
2022-10-23T07:25:02.047Z,98616.94
2022-10-23T07:28:11.694Z,98611.81
2022-10-23T07:31:14.525Z,98599.22
2022-10-23T07:34:52.350Z,98588.13
2022-10-23T07:38:07.734Z,98585.75
2022-10-23T07:41:13.980Z,98594.47
2022-10-23T07:44:16.479Z,98593.63
2022-10-23T07:47:18.978Z,98597.09
2022-10-23T07:50:25.128Z,98590.59
2022-10-23T07:53:27.771Z,98611.56
2022-10-23T07:56:34.781Z,98617.66
2022-10-23T07:59:55.748Z,98623.03
2022-10-23T08:02:59.507Z,98618.94
2022-10-23T08:06:01.863Z,98609.03
2022-10-23T08:09:06.563Z,98606.28
2022-10-23T08:12:14.471Z,98614.88
2022-10-23T08:15:17.012Z,98620.88
2022-10-23T08:18:34.610Z,98622.53
2022-10-23T08:21:46.939Z,98615.56
2022-10-23T08:24:51.409Z,98612.91
2022-10-23T08:27:53.470Z,98608.63
2022-10-23T08:30:56.526Z,98605.69
2022-10-23T08:33:59.353Z,98612.38
2022-10-23T08:37:02.263Z,98612.38
2022-10-23T08:40:05.005Z,98611.97
2022-10-23T08:43:45.750Z,98613.59
2022-10-23T08:47:11.255Z,98623.44
2022-10-23T08:50:46.462Z,98625.06
2022-10-23T08:54:00.437Z,98610.84
2022-10-23T08:57:08.425Z,98620.44
2022-10-23T09:00:17.348Z,98619.53
2022-10-23T09:03:19.567Z,98620.22
2022-10-23T09:06:39.749Z,98617.41
2022-10-23T09:09:52.227Z,98614.72
2022-10-23T09:13:00.132Z,98615.75
2022-10-23T09:16:38.877Z,98625.63
2022-10-23T09:19:41.182Z,98617.72
2022-10-23T09:22:44.069Z,98614.94
2022-10-23T09:25:48.126Z,98621.31
2022-10-23T09:28:53.170Z,98614.56
2022-10-23T09:32:00.619Z,98613.53
2022-10-23T09:35:02.888Z,98621.50
2022-10-23T09:38:04.980Z,98612.69
2022-10-23T09:41:13.902Z,98614.19
2022-10-23T09:44:18.726Z,98612.59
2022-10-23T09:47:24.557Z,98606.06
2022-10-23T09:50:26.718Z,98617.38
2022-10-23T09:53:55.208Z,98609.31
2022-10-23T09:57:20.200Z,98596.69
2022-10-23T10:00:27.831Z,98610.34
2022-10-23T10:03:30.074Z,98601.47
2022-10-23T10:06:44.037Z,98604.78
2022-10-23T10:09:46.326Z,98594.19
2022-10-23T10:12:59.345Z,98602.34
2022-10-23T10:16:20.110Z,98599.69
2022-10-23T10:19:59.643Z,98596.78
2022-10-23T10:23:08.195Z,98598.25
2022-10-23T10:26:10.135Z,98593.47
2022-10-23T10:29:49.327Z,98581.00
2022-10-23T10:33:21.145Z,98586.41
2022-10-23T10:37:00.603Z,98579.38
2022-10-23T10:40:10.765Z,98578.16
2022-10-23T10:43:21.923Z,98578.22
2022-10-23T10:46:42.799Z,98580.63
2022-10-23T10:50:29.526Z,98574.28
2022-10-23T10:53:51.839Z,98572.69
2022-10-23T10:56:55.086Z,98569.59
2022-10-23T11:00:01.716Z,98561.69
2022-10-23T11:03:16.719Z,98551.31
2022-10-23T11:06:21.030Z,98557.88
2022-10-23T11:09:32.073Z,98544.09
2022-10-23T11:12:34.147Z,98536.03
2022-10-23T11:15:41.319Z,98530.97
2022-10-23T11:18:45.824Z,98532.03
2022-10-23T11:21:55.132Z,98521.28
2022-10-23T11:25:15.915Z,98516.19
2022-10-23T11:28:18.148Z,98521.47
2022-10-23T11:31:41.312Z,98512.03
2022-10-23T11:35:04.172Z,98502.63
2022-10-23T11:38:25.693Z,98506.44
2022-10-23T11:41:34.362Z,98490.53
2022-10-23T11:44:43.747Z,98493.56
2022-10-23T11:48:01.258Z,98484.81
2022-10-23T11:51:08.011Z,98486.38
2022-10-23T11:54:10.660Z,98470.75
2022-10-23T11:57:18.032Z,98468.94
2022-10-23T12:00:23.995Z,98456.69
2022-10-23T12:03:30.760Z,98459.50
2022-10-23T12:06:42.539Z,98447.28
2022-10-23T12:09:46.534Z,98437.84
2022-10-23T12:12:57.786Z,98442.63
2022-10-23T12:16:01.114Z,98439.50
2022-10-23T12:19:19.807Z,98434.09
2022-10-23T12:22:25.621Z,98420.78
2022-10-23T12:25:52.844Z,98412.84
2022-10-23T12:28:57.831Z,98406.28
2022-10-23T12:32:18.336Z,98403.16
2022-10-23T12:36:01.536Z,98403.72
2022-10-23T12:39:04.227Z,98396.41
2022-10-23T12:42:24.584Z,98394.38
2022-10-23T12:45:33.049Z,98397.84
2022-10-23T12:48:36.384Z,98386.25
2022-10-23T12:51:38.794Z,98377.22
2022-10-23T12:54:41.785Z,98372.94
2022-10-23T12:57:44.764Z,98374.50
2022-10-23T13:00:51.768Z,98365.59
2022-10-23T13:04:11.992Z,98366.53
2022-10-23T13:07:14.750Z,98366.91
2022-10-23T13:10:20.188Z,98371.09
2022-10-23T13:13:29.712Z,98357.91
2022-10-23T13:16:32.321Z,98356.97
2022-10-23T13:19:37.843Z,98350.38
2022-10-23T13:22:41.030Z,98349.19
2022-10-23T13:25:43.447Z,98352.97
2022-10-23T13:28:46.240Z,98354.63
2022-10-23T13:31:48.889Z,98356.91
2022-10-23T13:35:03.663Z,98351.28
2022-10-23T13:38:13.117Z,98334.16
2022-10-23T13:41:18.767Z,98338.34
2022-10-23T13:44:22.738Z,98338.69
2022-10-23T13:47:25.610Z,98327.38
2022-10-23T13:50:28.016Z,98326.47
2022-10-23T13:53:30.722Z,98330.81
2022-10-23T13:56:33.437Z,98318.72
2022-10-23T13:59:35.584Z,98322.13
2022-10-23T14:02:37.688Z,98319.09
2022-10-23T14:05:39.870Z,98319.44
2022-10-23T14:08:41.843Z,98312.50
2022-10-23T14:11:44.382Z,98313.88
2022-10-23T14:14:52.300Z,98322.41
2022-10-23T14:17:58.993Z,98305.53
2022-10-23T14:21:03.594Z,98312.31
2022-10-23T14:24:06.795Z,98299.94
2022-10-23T14:27:09.161Z,98300.34
2022-10-23T14:30:11.980Z,98293.84
2022-10-23T14:33:15.424Z,98287.41
2022-10-23T14:39:25.440Z,98278.00
2022-10-23T14:42:33.068Z,98287.34
2022-10-23T14:45:36.008Z,98286.88
2022-10-23T14:48:38.528Z,98292.47
2022-10-23T14:51:40.349Z,98288.16
2022-10-23T14:54:42.621Z,98285.59
2022-10-23T14:57:45.019Z,98278.47
2022-10-23T15:00:57.676Z,98273.25
2022-10-23T15:04:00.151Z,98259.03
2022-10-23T15:07:02.671Z,98256.81
2022-10-23T15:10:05.546Z,98264.66
2022-10-23T15:13:08.061Z,98268.06
2022-10-23T15:16:10.695Z,98268.09
2022-10-23T15:19:18.209Z,98277.19
2022-10-23T15:22:20.979Z,98270.97
2022-10-23T15:25:23.132Z,98277.75
2022-10-23T15:28:26.563Z,98280.53
2022-10-23T15:31:37.849Z,98286.09
2022-10-23T15:34:43.062Z,98281.94
2022-10-23T15:37:45.749Z,98284.81
2022-10-23T15:40:48.139Z,98294.75
2022-10-23T15:46:58.292Z,98305.06
2022-10-23T15:50:00.167Z,98292.53
2022-10-23T15:53:03.045Z,98292.56
2022-10-23T15:56:06.129Z,98289.78
2022-10-23T15:59:08.372Z,98286.63
2022-10-23T16:02:12.455Z,98294.72
2022-10-23T16:05:18.073Z,98291.25
2022-10-23T16:08:20.257Z,98296.03
2022-10-23T16:11:25.488Z,98299.50
2022-10-23T16:14:27.891Z,98290.63
2022-10-23T16:17:32.623Z,98299.53
2022-10-23T16:20:35.304Z,98299.53
2022-10-23T16:23:37.480Z,98305.81
2022-10-23T16:26:39.835Z,98307.44
2022-10-23T16:29:42.315Z,98306.13
2022-10-23T16:32:44.378Z,98312.38
2022-10-23T16:35:46.671Z,98309.75
2022-10-23T16:38:53.786Z,98308.09
2022-10-23T16:42:15.875Z,98317.97
2022-10-23T16:45:37.825Z,98318.44
2022-10-23T16:48:43.115Z,98328.16
2022-10-23T16:51:45.139Z,98339.38
2022-10-23T16:54:47.223Z,98335.41
2022-10-23T16:57:49.416Z,98331.28
2022-10-23T17:01:03.017Z,98345.47
2022-10-23T17:04:06.648Z,98326.81
2022-10-23T17:07:08.676Z,98328.97
2022-10-23T17:10:11.235Z,98320.56
2022-10-23T17:13:13.706Z,98318.88
2022-10-23T17:16:21.459Z,98317.88
2022-10-23T17:19:45.139Z,98331.69
2022-10-23T17:22:47.703Z,98331.81
2022-10-23T17:25:49.876Z,98334.25
2022-10-23T17:28:53.013Z,98327.63
2022-10-23T17:31:55.561Z,98326.81
2022-10-23T17:34:57.774Z,98323.41
2022-10-23T17:38:00.031Z,98334.28
2022-10-23T17:41:02.049Z,98341.38
2022-10-23T17:44:04.745Z,98346.13
2022-10-23T17:47:07.431Z,98342.50
2022-10-23T17:50:12.662Z,98337.16
2022-10-23T17:53:14.991Z,98344.97
2022-10-23T17:56:22.722Z,98345.50
2022-10-23T17:59:25.080Z,98345.34
2022-10-23T18:02:27.668Z,98332.78
2022-10-23T18:05:34.067Z,98322.19
2022-10-23T18:08:37.738Z,98330.78
2022-10-23T18:11:45.285Z,98337.69
2022-10-23T18:14:58.225Z,98346.78
2022-10-23T18:18:00.707Z,98345.03
2022-10-23T18:21:02.872Z,98340.78
2022-10-23T18:24:07.659Z,98334.88
2022-10-23T18:27:09.682Z,98326.34
2022-10-23T18:30:12.734Z,98343.44
2022-10-23T18:33:16.012Z,98338.03
2022-10-23T18:36:24.366Z,98336.59
2022-10-23T18:39:27.239Z,98341.84
2022-10-23T18:42:37.536Z,98335.59
2022-10-23T18:45:42.307Z,98340.03
2022-10-23T18:48:44.671Z,98335.91
2022-10-23T18:51:47.206Z,98337.22
2022-10-23T18:54:49.515Z,98340.56
2022-10-23T18:57:52.143Z,98341.19
2022-10-23T19:00:54.675Z,98343.00
2022-10-23T19:03:58.109Z,98334.66
2022-10-23T19:07:00.150Z,98329.50
2022-10-23T19:10:02.874Z,98323.06
2022-10-23T19:13:05.590Z,98320.88
2022-10-23T19:16:12.743Z,98316.13
2022-10-23T19:19:16.677Z,98318.09
2022-10-23T19:22:18.983Z,98319.72
2022-10-23T19:25:25.808Z,98309.97
2022-10-23T19:28:38.915Z,98310.81
2022-10-23T19:31:45.154Z,98317.13
2022-10-23T19:34:47.411Z,98313.88
2022-10-23T19:37:50.087Z,98315.88
2022-10-23T19:40:52.324Z,98307.69
2022-10-23T19:43:54.779Z,98303.91
2022-10-23T19:46:56.943Z,98309.03
2022-10-23T19:49:59.243Z,98309.69
2022-10-23T19:53:01.550Z,98314.50
2022-10-23T19:56:05.951Z,98304.41
2022-10-23T19:59:08.557Z,98307.09
2022-10-23T20:02:10.911Z,98315.03
2022-10-23T20:05:13.344Z,98306.69
2022-10-23T20:08:15.300Z,98319.72
2022-10-23T20:11:23.751Z,98312.28
2022-10-23T20:14:25.770Z,98307.97
2022-10-23T20:17:30.083Z,98302.50
2022-10-23T20:20:32.340Z,98300.19
2022-10-23T20:23:34.513Z,98295.06
2022-10-23T20:26:39.998Z,98292.41
2022-10-23T20:29:42.940Z,98285.16
2022-10-23T20:32:45.308Z,98279.75
2022-10-23T20:35:47.700Z,98276.97
2022-10-23T20:38:49.973Z,98279.81
2022-10-23T20:41:52.154Z,98277.47
2022-10-23T20:44:54.100Z,98282.56
2022-10-23T20:47:56.124Z,98284.06
2022-10-23T20:51:03.122Z,98274.97
2022-10-23T20:54:05.069Z,98279.44
2022-10-23T20:57:07.132Z,98280.44
2022-10-23T21:00:10.252Z,98282.00
2022-10-23T21:03:12.110Z,98275.69
2022-10-23T21:06:15.639Z,98273.34
2022-10-23T21:09:19.867Z,98264.38
2022-10-23T21:12:21.597Z,98274.59
2022-10-23T21:15:23.565Z,98276.47
2022-10-23T21:18:45.112Z,98271.94
2022-10-23T21:21:47.764Z,98265.19
2022-10-23T21:24:49.623Z,98269.84
2022-10-23T21:27:51.483Z,98259.59
2022-10-23T21:30:53.285Z,98274.09
2022-10-23T21:33:55.308Z,98267.84
2022-10-23T21:37:14.259Z,98253.97
2022-10-23T21:40:16.737Z,98268.44
2022-10-23T21:43:18.660Z,98283.63
2022-10-23T21:46:21.357Z,98280.00
2022-10-23T21:49:23.283Z,98279.59
2022-10-23T21:52:25.060Z,98275.72
2022-10-23T21:55:28.836Z,98280.84
2022-10-23T21:58:31.160Z,98284.97
2022-10-23T22:01:34.159Z,98284.00
2022-10-23T22:04:36.699Z,98272.47
2022-10-23T22:07:38.761Z,98276.63
2022-10-23T22:10:40.895Z,98287.63
2022-10-23T22:13:43.561Z,98283.38
2022-10-23T22:16:45.671Z,98270.66
2022-10-23T22:19:47.434Z,98270.47
2022-10-23T22:22:49.246Z,98260.63
2022-10-23T22:25:51.456Z,98266.72
2022-10-23T22:28:55.477Z,98264.38
2022-10-23T22:31:57.791Z,98263.84
2022-10-23T22:34:59.606Z,98254.28
2022-10-23T22:38:01.418Z,98248.69
2022-10-23T22:41:03.799Z,98252.63
2022-10-23T22:44:06.237Z,98259.22
2022-10-23T22:47:07.965Z,98255.31
2022-10-23T22:50:10.014Z,98256.63
2022-10-23T22:53:11.838Z,98270.44
2022-10-23T22:56:27.730Z,98274.91
2022-10-23T22:59:29.769Z,98270.75
2022-10-23T23:02:31.759Z,98264.50
2022-10-23T23:05:33.822Z,98258.66
2022-10-23T23:08:37.487Z,98253.53
2022-10-23T23:11:51.383Z,98246.91
2022-10-23T23:14:54.386Z,98247.91
2022-10-23T23:17:56.412Z,98245.91
2022-10-23T23:21:05.362Z,98239.63
2022-10-23T23:24:07.388Z,98234.38
2022-10-23T23:27:09.192Z,98252.63
2022-10-23T23:30:11.231Z,98247.16
2022-10-23T23:33:14.881Z,98231.81
2022-10-23T23:36:23.374Z,98231.94
2022-10-23T23:39:26.324Z,98236.56
2022-10-23T23:42:28.167Z,98226.66
2022-10-23T23:45:30.477Z,98253.31
2022-10-23T23:48:32.497Z,98264.84
2022-10-23T23:51:35.271Z,98258.59
2022-10-23T23:54:37.623Z,98236.47
2022-10-23T23:57:39.399Z,98238.34
